Super Servant 4 — PJPO — position and weather

sailwx.info

Track history (hours):
 
Tides and Currents Weather Stations Pressure Air Temp Water Temp Dewpoint Dewpoint Depression Visibility Wind Speed Wind Dir Waves Ship Positions

Super Servant 4

Last reported at 2015-Jan-12 22:31 UTC. Time now 2015-Jan-26 18:33 UTC.
Position N 26°12' W 079°22'.
Warning: this ship's position is 13 days out of date.

Length 139 m; beam 32 m.

Type: Cargo ship. MMSI: 306157000.

Date/timePositionNaut miles runAvg speedWind from/ knotsBaromVisibWave heightAir tempDewpointWater temp
2015-Jan-12 22:31N 26°12' W 079°22'1111.6
2015-Jan-12 21:33N 26°10' W 079°34'1211.5
2015-Jan-12 20:33N 26°08' W 079°47'1211.6
2015-Jan-12 19:33N 26°06' W 079°60'7 6.7
2015-Jan-12 18:33N 26°06' W 080°07'0 0.0
2015-Jan-12 17:25N 26°06' W 080°07'0 0.0
2015-Jan-12 16:27N 26°06' W 080°07'0 0.0
2015-Jan-12 15:31N 26°06' W 080°07'0 0.0
2015-Jan-12 14:31N 26°06' W 080°07'0 0.0
2015-Jan-12 13:30N 26°06' W 080°07'0 0.0
2015-Jan-12 12:31N 26°06' W 080°07'0 0.0
2015-Jan-12 11:31N 26°06' W 080°07'0 0.0
2015-Jan-12 10:31N 26°06' W 080°07'0 0.0
2015-Jan-12 09:31N 26°06' W 080°07'0 0.0
2015-Jan-12 08:22N 26°06' W 080°07'0 0.0
2015-Jan-12 07:31N 26°06' W 080°07'0 0.0
2015-Jan-12 06:22N 26°06' W 080°07'0 0.0
2015-Jan-12 05:25N 26°06' W 080°07'0 0.0
2015-Jan-12 04:25N 26°06' W 080°07'0 0.0
2015-Jan-12 03:25N 26°06' W 080°07'0 0.0
2015-Jan-12 02:25N 26°06' W 080°07'0 0.0
2015-Jan-12 01:28N 26°06' W 080°07'0 0.0
2015-Jan-12 00:28N 26°06' W 080°07'0 0.0
2015-Jan-11 23:31N 26°06' W 080°07'0 0.0
2015-Jan-11 22:31N 26°06' W 080°07'0 0.0
2015-Jan-11 21:31N 26°06' W 080°07'0 0.0
2015-Jan-11 20:31N 26°06' W 080°07'0 0.0
2015-Jan-11 19:31N 26°06' W 080°07'0 0.0
2015-Jan-11 18:31N 26°06' W 080°07'0 0.0
2015-Jan-11 17:31N 26°06' W 080°07'0 0.0
2015-Jan-11 16:22N 26°06' W 080°07'0 0.0
2015-Jan-11 15:25N 26°06' W 080°07'0 0.0
2015-Jan-11 14:25N 26°06' W 080°07'0 0.0
2015-Jan-11 13:25N 26°06' W 080°07'0 0.0
2015-Jan-11 12:28N 26°06' W 080°07'0 0.0
2015-Jan-11 11:28N 26°06' W 080°07'0 0.0
2015-Jan-11 10:28N 26°06' W 080°07'0 0.0
2015-Jan-11 09:31N 26°06' W 080°07'0 0.0
2015-Jan-11 08:31N 26°06' W 080°07'0 0.0
2015-Jan-11 07:31N 26°06' W 080°07'0 0.0
2015-Jan-11 06:31N 26°06' W 080°07'0 0.0
2015-Jan-11 05:31N 26°06' W 080°07'0 0.0
2015-Jan-11 04:31N 26°06' W 080°07'0 0.0
2015-Jan-11 03:31N 26°06' W 080°07'0 0.0
2015-Jan-11 02:22N 26°06' W 080°07'0 0.0
2015-Jan-11 01:22N 26°06' W 080°07'0 0.0
2015-Jan-11 00:25N 26°06' W 080°07'0 0.1
2015-Jan-10 23:34N 26°06' W 080°07'6 5.9
2015-Jan-10 22:34N 26°05' W 080°01'5 4.5
2015-Jan-10 21:34N 26°06' W 079°56'9 8.5
2015-Jan-10 20:34N 25°59' W 079°51'1010.2
2015-Jan-10 19:34N 25°52' W 079°43'1010.4
2015-Jan-10 18:33N 25°42' W 079°38'  
Track history (hours):
 
Tides and Currents Weather Stations Pressure Air Temp Water Temp Dewpoint Dewpoint Depression Visibility Wind Speed Wind Dir Waves Ship Positions

Super Servant 4

Last reported at 2015-Jan-12 22:31 UTC. Time now 2015-Jan-26 18:33 UTC.
Position N 26°12' W 079°22'.
Warning: this ship's position is 13 days out of date.

Length 139 m; beam 32 m.

Type: Cargo ship. MMSI: 306157000.

Date/timePositionNaut miles runAvg speedWind from/ knotsBaromVisibWave heightAir tempDewpointWater temp
2015-Jan-12 22:31N 26°12' W 079°22'1111.6
2015-Jan-12 21:33N 26°10' W 079°34'1211.5
2015-Jan-12 20:33N 26°08' W 079°47'1211.6
2015-Jan-12 19:33N 26°06' W 079°60'7 6.7
2015-Jan-12 18:33N 26°06' W 080°07'0 0.0
2015-Jan-12 17:25N 26°06' W 080°07'0 0.0
2015-Jan-12 16:27N 26°06' W 080°07'0 0.0
2015-Jan-12 15:31N 26°06' W 080°07'0 0.0
2015-Jan-12 14:31N 26°06' W 080°07'0 0.0
2015-Jan-12 13:30N 26°06' W 080°07'0 0.0
2015-Jan-12 12:31N 26°06' W 080°07'0 0.0
2015-Jan-12 11:31N 26°06' W 080°07'0 0.0
2015-Jan-12 10:31N 26°06' W 080°07'0 0.0
2015-Jan-12 09:31N 26°06' W 080°07'0 0.0
2015-Jan-12 08:22N 26°06' W 080°07'0 0.0
2015-Jan-12 07:31N 26°06' W 080°07'0 0.0
2015-Jan-12 06:22N 26°06' W 080°07'0 0.0
2015-Jan-12 05:25N 26°06' W 080°07'0 0.0
2015-Jan-12 04:25N 26°06' W 080°07'0 0.0
2015-Jan-12 03:25N 26°06' W 080°07'0 0.0
2015-Jan-12 02:25N 26°06' W 080°07'0 0.0
2015-Jan-12 01:28N 26°06' W 080°07'0 0.0
2015-Jan-12 00:28N 26°06' W 080°07'0 0.0
2015-Jan-11 23:31N 26°06' W 080°07'0 0.0
2015-Jan-11 22:31N 26°06' W 080°07'0 0.0
2015-Jan-11 21:31N 26°06' W 080°07'0 0.0
2015-Jan-11 20:31N 26°06' W 080°07'0 0.0
2015-Jan-11 19:31N 26°06' W 080°07'0 0.0
2015-Jan-11 18:31N 26°06' W 080°07'0 0.0
2015-Jan-11 17:31N 26°06' W 080°07'0 0.0
2015-Jan-11 16:22N 26°06' W 080°07'0 0.0
2015-Jan-11 15:25N 26°06' W 080°07'0 0.0
2015-Jan-11 14:25N 26°06' W 080°07'0 0.0
2015-Jan-11 13:25N 26°06' W 080°07'0 0.0
2015-Jan-11 12:28N 26°06' W 080°07'0 0.0
2015-Jan-11 11:28N 26°06' W 080°07'0 0.0
2015-Jan-11 10:28N 26°06' W 080°07'0 0.0
2015-Jan-11 09:31N 26°06' W 080°07'0 0.0
2015-Jan-11 08:31N 26°06' W 080°07'0 0.0
2015-Jan-11 07:31N 26°06' W 080°07'0 0.0
2015-Jan-11 06:31N 26°06' W 080°07'0 0.0
2015-Jan-11 05:31N 26°06' W 080°07'0 0.0
2015-Jan-11 04:31N 26°06' W 080°07'0 0.0
2015-Jan-11 03:31N 26°06' W 080°07'0 0.0
2015-Jan-11 02:22N 26°06' W 080°07'0 0.0
2015-Jan-11 01:22N 26°06' W 080°07'0 0.0
2015-Jan-11 00:25N 26°06' W 080°07'0 0.1
2015-Jan-10 23:34N 26°06' W 080°07'6 5.9
2015-Jan-10 22:34N 26°05' W 080°01'5 4.5
2015-Jan-10 21:34N 26°06' W 079°56'9 8.5
2015-Jan-10 20:34N 25°59' W 079°51'1010.2
2015-Jan-10 19:34N 25°52' W 079°43'1010.4
2015-Jan-10 18:33N 25°42' W 079°38'  

Dump ship's entire track history